Terminal Aerodrome Forecast
Issued by NWS Central Illinois

Home | Current Version | Previous Version | Text Only | Print | Product List | Glossary On
Versions: 1 2 3 4 5 6 7 8 9 10 11 12 13 14 15 16 17
000
FTUS43 KILX 032320
TAFPIA
TAF
KPIA 032320Z 0400/0424 19011KT P6SM SCT060 BKN100
     FM040900 19008KT P6SM VCTS BKN060CB
     FM041400 24009KT P6SM BKN060=

USA.gov is the U.S. government's official web portal to all federal, state and local government web resources and services.